sensor_id;sensor_type;location;lat;lon;timestamp;temperature;humidity
25983;DHT22;13773;48.868;10.730;2022-10-31T00:01:27;10.40;99.90
25983;DHT22;13773;48.868;10.730;2022-10-31T00:03:53;10.30;99.90
25983;DHT22;13773;48.868;10.730;2022-10-31T00:06:19;10.40;99.90
25983;DHT22;13773;48.868;10.730;2022-10-31T00:08:46;10.20;99.90
25983;DHT22;13773;48.868;10.730;2022-10-31T00:11:12;10.20;99.90
25983;DHT22;13773;48.868;10.730;2022-10-31T00:13:38;10.20;99.90
25983;DHT22;13773;48.868;10.730;2022-10-31T00:16:04;10.30;99.90
25983;DHT22;13773;48.868;10.730;2022-10-31T00:18:30;10.30;99.90
25983;DHT22;13773;48.868;10.730;2022-10-31T00:21:00;10.30;99.90
25983;DHT22;13773;48.868;10.730;2022-10-31T00:23:25;10.10;99.90
25983;DHT22;13773;48.868;10.730;2022-10-31T00:25:51;10.00;99.90
25983;DHT22;13773;48.868;10.730;2022-10-31T00:28:17;9.90;99.90
25983;DHT22;13773;48.868;10.730;2022-10-31T00:30:43;10.00;99.90
25983;DHT22;13773;48.868;10.730;2022-10-31T00:33:08;10.20;99.90
25983;DHT22;13773;48.868;10.730;2022-10-31T00:35:34;10.40;99.90
25983;DHT22;13773;48.868;10.730;2022-10-31T00:38:00;10.40;99.90
25983;DHT22;13773;48.868;10.730;2022-10-31T00:40:25;10.30;99.90
25983;DHT22;13773;48.868;10.730;2022-10-31T00:42:51;10.30;99.90
25983;DHT22;13773;48.868;10.730;2022-10-31T00:45:17;10.20;99.90
25983;DHT22;13773;48.868;10.730;2022-10-31T00:47:42;10.10;99.90
25983;DHT22;13773;48.868;10.730;2022-10-31T00:50:08;9.90;99.90
25983;DHT22;13773;48.868;10.730;2022-10-31T00:52:34;9.70;99.90
25983;DHT22;13773;48.868;10.730;2022-10-31T00:55:00;9.50;99.90
25983;DHT22;13773;48.868;10.730;2022-10-31T00:57:26;9.40;99.90
25983;DHT22;13773;48.868;10.730;2022-10-31T00:59:52;9.40;99.90
25983;DHT22;13773;48.868;10.730;2022-10-31T01:02:17;9.30;99.90
25983;DHT22;13773;48.868;10.730;2022-10-31T01:04:43;9.10;99.90
25983;DHT22;13773;48.868;10.730;2022-10-31T01:07:09;9.10;99.90
25983;DHT22;13773;48.868;10.730;2022-10-31T01:09:37;9.10;99.90
25983;DHT22;13773;48.868;10.730;2022-10-31T01:12:03;9.00;99.90
25983;DHT22;13773;48.868;10.730;2022-10-31T01:14:29;9.00;99.90
25983;DHT22;13773;48.868;10.730;2022-10-31T01:16:54;9.00;99.90
25983;DHT22;13773;48.868;10.730;2022-10-31T01:19:20;9.00;99.90
25983;DHT22;13773;48.868;10.730;2022-10-31T01:21:46;9.00;99.90
25983;DHT22;13773;48.868;10.730;2022-10-31T01:24:11;9.00;99.90
25983;DHT22;13773;48.868;10.730;2022-10-31T01:26:37;8.90;99.90
25983;DHT22;13773;48.868;10.730;2022-10-31T01:29:06;8.80;99.90
25983;DHT22;13773;48.868;10.730;2022-10-31T01:31:34;8.80;99.90
25983;DHT22;13773;48.868;10.730;2022-10-31T01:34:01;8.70;99.90
25983;DHT22;13773;48.868;10.730;2022-10-31T01:36:39;8.60;99.90
25983;DHT22;13773;48.868;10.730;2022-10-31T01:39:10;8.50;99.90
25983;DHT22;13773;48.868;10.730;2022-10-31T01:41:40;8.50;99.90
25983;DHT22;13773;48.868;10.730;2022-10-31T01:46:44;8.70;99.90
25983;DHT22;13773;48.868;10.730;2022-10-31T01:51:58;8.70;99.90
25983;DHT22;13773;48.868;10.730;2022-10-31T01:54:28;8.80;99.90
25983;DHT22;13773;48.868;10.730;2022-10-31T01:56:57;8.70;99.90
25983;DHT22;13773;48.868;10.730;2022-10-31T01:59:27;8.60;99.90
25983;DHT22;13773;48.868;10.730;2022-10-31T02:01:54;8.50;99.90
25983;DHT22;13773;48.868;10.730;2022-10-31T02:04:20;8.60;99.90
25983;DHT22;13773;48.868;10.730;2022-10-31T02:09:16;8.70;99.90
25983;DHT22;13773;48.868;10.730;2022-10-31T02:11:43;8.60;99.90
25983;DHT22;13773;48.868;10.730;2022-10-31T02:14:10;8.50;99.90
25983;DHT22;13773;48.868;10.730;2022-10-31T02:16:35;8.40;99.90
25983;DHT22;13773;48.868;10.730;2022-10-31T02:19:02;8.40;99.90
25983;DHT22;13773;48.868;10.730;2022-10-31T02:21:50;8.30;99.90
25983;DHT22;13773;48.868;10.730;2022-10-31T02:30:14;8.30;99.90
25983;DHT22;13773;48.868;10.730;2022-10-31T02:41:01;8.60;99.90
25983;DHT22;13773;48.868;10.730;2022-10-31T02:43:50;8.60;99.90
25983;DHT22;13773;48.868;10.730;2022-10-31T02:48:54;8.50;99.90
25983;DHT22;13773;48.868;10.730;2022-10-31T02:51:22;8.50;99.90
25983;DHT22;13773;48.868;10.730;2022-10-31T02:53:47;8.40;99.90
25983;DHT22;13773;48.868;10.730;2022-10-31T02:56:14;8.40;99.90
25983;DHT22;13773;48.868;10.730;2022-10-31T02:58:45;8.40;99.90
25983;DHT22;13773;48.868;10.730;2022-10-31T03:09:53;8.40;99.90
25983;DHT22;13773;48.868;10.730;2022-10-31T03:18:37;8.60;99.90
25983;DHT22;13773;48.868;10.730;2022-10-31T03:20:50;8.50;99.90
25983;DHT22;13773;48.868;10.730;2022-10-31T03:23:19;8.50;99.90
25983;DHT22;13773;48.868;10.730;2022-10-31T03:25:47;8.40;99.90
25983;DHT22;13773;48.868;10.730;2022-10-31T03:28:16;8.40;99.90
25983;DHT22;13773;48.868;10.730;2022-10-31T03:30:44;8.50;99.90
25983;DHT22;13773;48.868;10.730;2022-10-31T03:33:15;8.50;99.90
25983;DHT22;13773;48.868;10.730;2022-10-31T03:35:44;8.40;99.90
25983;DHT22;13773;48.868;10.730;2022-10-31T03:38:11;8.50;99.90
25983;DHT22;13773;48.868;10.730;2022-10-31T03:40:40;8.60;99.90
25983;DHT22;13773;48.868;10.730;2022-10-31T03:43:12;8.60;99.90
25983;DHT22;13773;48.868;10.730;2022-10-31T03:45:43;8.50;99.90
25983;DHT22;13773;48.868;10.730;2022-10-31T03:48:10;8.40;99.90
25983;DHT22;13773;48.868;10.730;2022-10-31T03:54:11;8.30;99.90
25983;DHT22;13773;48.868;10.730;2022-10-31T03:56:50;8.30;99.90
25983;DHT22;13773;48.868;10.730;2022-10-31T03:59:26;8.20;99.90
25983;DHT22;13773;48.868;10.730;2022-10-31T04:01:57;8.20;99.90
25983;DHT22;13773;48.868;10.730;2022-10-31T04:04:26;8.20;99.90
25983;DHT22;13773;48.868;10.730;2022-10-31T04:06:55;8.20;99.90
25983;DHT22;13773;48.868;10.730;2022-10-31T04:09:22;8.10;99.90
25983;DHT22;13773;48.868;10.730;2022-10-31T04:11:53;8.00;99.90
25983;DHT22;13773;48.868;10.730;2022-10-31T04:14:20;8.00;99.90
25983;DHT22;13773;48.868;10.730;2022-10-31T04:16:46;8.00;99.90
25983;DHT22;13773;48.868;10.730;2022-10-31T04:19:12;8.00;99.90
25983;DHT22;13773;48.868;10.730;2022-10-31T04:21:38;8.10;99.90
25983;DHT22;13773;48.868;10.730;2022-10-31T04:24:04;8.00;99.90
25983;DHT22;13773;48.868;10.730;2022-10-31T04:26:30;8.00;99.90
25983;DHT22;13773;48.868;10.730;2022-10-31T04:28:55;8.00;99.90
25983;DHT22;13773;48.868;10.730;2022-10-31T04:31:21;8.00;99.90
25983;DHT22;13773;48.868;10.730;2022-10-31T04:33:47;7.90;99.90
25983;DHT22;13773;48.868;10.730;2022-10-31T04:36:13;8.20;99.90
25983;DHT22;13773;48.868;10.730;2022-10-31T04:38:38;8.30;99.90
25983;DHT22;13773;48.868;10.730;2022-10-31T04:41:04;8.10;99.90
25983;DHT22;13773;48.868;10.730;2022-10-31T04:43:30;7.90;99.90
25983;DHT22;13773;48.868;10.730;2022-10-31T04:45:56;7.80;99.90
25983;DHT22;13773;48.868;10.730;2022-10-31T04:48:21;7.80;99.90
25983;DHT22;13773;48.868;10.730;2022-10-31T04:50:47;7.80;99.90
25983;DHT22;13773;48.868;10.730;2022-10-31T04:53:13;7.70;99.90
25983;DHT22;13773;48.868;10.730;2022-10-31T04:55:38;7.60;99.90
25983;DHT22;13773;48.868;10.730;2022-10-31T04:58:04;7.80;99.90
25983;DHT22;13773;48.868;10.730;2022-10-31T05:00:30;8.00;99.90
25983;DHT22;13773;48.868;10.730;2022-10-31T05:02:57;8.10;99.90
25983;DHT22;13773;48.868;10.730;2022-10-31T05:05:28;8.00;99.90
25983;DHT22;13773;48.868;10.730;2022-10-31T05:07:55;7.90;99.90
25983;DHT22;13773;48.868;10.730;2022-10-31T05:10:23;8.00;99.90
25983;DHT22;13773;48.868;10.730;2022-10-31T05:12:57;8.00;99.90
25983;DHT22;13773;48.868;10.730;2022-10-31T05:15:25;7.80;99.90
25983;DHT22;13773;48.868;10.730;2022-10-31T05:17:51;7.70;99.90
25983;DHT22;13773;48.868;10.730;2022-10-31T05:20:19;7.50;99.90
25983;DHT22;13773;48.868;10.730;2022-10-31T05:22:48;7.40;99.90
25983;DHT22;13773;48.868;10.730;2022-10-31T05:25:14;7.30;99.90
25983;DHT22;13773;48.868;10.730;2022-10-31T05:27:45;7.30;99.90
25983;DHT22;13773;48.868;10.730;2022-10-31T05:30:14;7.30;99.90
25983;DHT22;13773;48.868;10.730;2022-10-31T05:32:42;7.20;99.90
25983;DHT22;13773;48.868;10.730;2022-10-31T05:35:10;7.10;99.90
25983;DHT22;13773;48.868;10.730;2022-10-31T05:37:36;7.10;99.90
25983;DHT22;13773;48.868;10.730;2022-10-31T05:40:07;7.10;99.90
25983;DHT22;13773;48.868;10.730;2022-10-31T05:42:33;7.10;99.90
25983;DHT22;13773;48.868;10.730;2022-10-31T05:44:59;7.20;99.90
25983;DHT22;13773;48.868;10.730;2022-10-31T05:47:25;7.20;99.90
25983;DHT22;13773;48.868;10.730;2022-10-31T05:49:51;7.10;99.90
25983;DHT22;13773;48.868;10.730;2022-10-31T05:52:17;7.10;99.90
25983;DHT22;13773;48.868;10.730;2022-10-31T05:54:42;7.20;99.90
25983;DHT22;13773;48.868;10.730;2022-10-31T05:57:08;7.20;99.90
25983;DHT22;13773;48.868;10.730;2022-10-31T05:59:34;7.30;99.90
25983;DHT22;13773;48.868;10.730;2022-10-31T06:02:00;7.40;99.90
25983;DHT22;13773;48.868;10.730;2022-10-31T06:04:25;7.50;99.90
25983;DHT22;13773;48.868;10.730;2022-10-31T06:06:51;7.70;99.90
25983;DHT22;13773;48.868;10.730;2022-10-31T06:09:17;7.70;99.90
25983;DHT22;13773;48.868;10.730;2022-10-31T06:11:42;7.60;99.90
25983;DHT22;13773;48.868;10.730;2022-10-31T06:14:08;7.60;99.90
25983;DHT22;13773;48.868;10.730;2022-10-31T06:16:34;7.60;99.90
25983;DHT22;13773;48.868;10.730;2022-10-31T06:19:00;7.60;99.90
25983;DHT22;13773;48.868;10.730;2022-10-31T06:21:25;7.70;99.90
25983;DHT22;13773;48.868;10.730;2022-10-31T06:23:51;7.60;99.90
25983;DHT22;13773;48.868;10.730;2022-10-31T06:26:17;7.70;99.90
25983;DHT22;13773;48.868;10.730;2022-10-31T06:28:42;7.70;99.90
25983;DHT22;13773;48.868;10.730;2022-10-31T06:31:08;7.70;99.90
25983;DHT22;13773;48.868;10.730;2022-10-31T06:33:34;7.80;99.90
25983;DHT22;13773;48.868;10.730;2022-10-31T06:36:01;7.90;99.90
25983;DHT22;13773;48.868;10.730;2022-10-31T06:38:27;7.90;99.90
25983;DHT22;13773;48.868;10.730;2022-10-31T06:40:53;7.90;99.90
25983;DHT22;13773;48.868;10.730;2022-10-31T06:43:20;7.90;99.90
25983;DHT22;13773;48.868;10.730;2022-10-31T06:45:46;7.90;99.90
25983;DHT22;13773;48.868;10.730;2022-10-31T06:48:11;7.90;99.90
25983;DHT22;13773;48.868;10.730;2022-10-31T06:50:37;7.90;99.90
25983;DHT22;13773;48.868;10.730;2022-10-31T06:53:03;8.00;99.90
25983;DHT22;13773;48.868;10.730;2022-10-31T06:55:29;8.10;99.90
25983;DHT22;13773;48.868;10.730;2022-10-31T06:57:59;8.10;99.90
25983;DHT22;13773;48.868;10.730;2022-10-31T07:00:27;8.10;99.90
25983;DHT22;13773;48.868;10.730;2022-10-31T07:03:04;8.10;99.90
25983;DHT22;13773;48.868;10.730;2022-10-31T07:05:30;8.10;99.90
25983;DHT22;13773;48.868;10.730;2022-10-31T07:07:59;8.00;99.90
25983;DHT22;13773;48.868;10.730;2022-10-31T07:10:27;8.10;99.90
25983;DHT22;13773;48.868;10.730;2022-10-31T07:13:00;8.10;99.90
25983;DHT22;13773;48.868;10.730;2022-10-31T07:15:28;8.10;99.90
25983;DHT22;13773;48.868;10.730;2022-10-31T07:17:58;8.20;99.90
25983;DHT22;13773;48.868;10.730;2022-10-31T07:20:24;8.20;99.90
25983;DHT22;13773;48.868;10.730;2022-10-31T07:22:50;8.20;99.90
25983;DHT22;13773;48.868;10.730;2022-10-31T07:25:15;8.20;99.90
25983;DHT22;13773;48.868;10.730;2022-10-31T07:27:42;8.20;99.90
25983;DHT22;13773;48.868;10.730;2022-10-31T07:30:10;8.30;99.90
25983;DHT22;13773;48.868;10.730;2022-10-31T07:32:44;8.30;99.90
25983;DHT22;13773;48.868;10.730;2022-10-31T07:35:12;8.40;99.90
25983;DHT22;13773;48.868;10.730;2022-10-31T07:37:39;8.40;99.90
25983;DHT22;13773;48.868;10.730;2022-10-31T07:40:07;8.50;99.90
25983;DHT22;13773;48.868;10.730;2022-10-31T07:42:40;8.50;99.90
25983;DHT22;13773;48.868;10.730;2022-10-31T07:45:09;8.50;99.90
25983;DHT22;13773;48.868;10.730;2022-10-31T07:47:46;8.60;99.90
25983;DHT22;13773;48.868;10.730;2022-10-31T07:50:17;8.70;99.90
25983;DHT22;13773;48.868;10.730;2022-10-31T07:52:43;8.70;99.90
25983;DHT22;13773;48.868;10.730;2022-10-31T07:55:10;8.80;99.90
25983;DHT22;13773;48.868;10.730;2022-10-31T07:57:36;8.80;99.90
25983;DHT22;13773;48.868;10.730;2022-10-31T08:00:05;8.80;99.90
25983;DHT22;13773;48.868;10.730;2022-10-31T08:02:31;8.90;99.90
25983;DHT22;13773;48.868;10.730;2022-10-31T08:04:57;8.90;99.90
25983;DHT22;13773;48.868;10.730;2022-10-31T08:07:23;8.80;99.90
25983;DHT22;13773;48.868;10.730;2022-10-31T08:09:48;8.90;99.90
25983;DHT22;13773;48.868;10.730;2022-10-31T08:12:14;8.90;99.90
25983;DHT22;13773;48.868;10.730;2022-10-31T08:14:40;8.90;99.90
25983;DHT22;13773;48.868;10.730;2022-10-31T08:17:05;9.10;99.90
25983;DHT22;13773;48.868;10.730;2022-10-31T08:19:31;9.30;99.90
25983;DHT22;13773;48.868;10.730;2022-10-31T08:21:57;9.60;99.90
25983;DHT22;13773;48.868;10.730;2022-10-31T08:24:23;9.80;99.90
25983;DHT22;13773;48.868;10.730;2022-10-31T08:26:49;10.20;99.90
25983;DHT22;13773;48.868;10.730;2022-10-31T08:29:15;10.30;99.90
25983;DHT22;13773;48.868;10.730;2022-10-31T08:31:44;10.40;99.90
25983;DHT22;13773;48.868;10.730;2022-10-31T08:34:09;10.40;99.90
25983;DHT22;13773;48.868;10.730;2022-10-31T08:36:35;10.40;99.90
25983;DHT22;13773;48.868;10.730;2022-10-31T08:39:01;10.40;99.90
25983;DHT22;13773;48.868;10.730;2022-10-31T08:41:27;10.60;99.90
25983;DHT22;13773;48.868;10.730;2022-10-31T08:43:53;10.70;99.90
25983;DHT22;13773;48.868;10.730;2022-10-31T08:46:19;10.80;99.90
25983;DHT22;13773;48.868;10.730;2022-10-31T08:48:47;11.00;99.90
25983;DHT22;13773;48.868;10.730;2022-10-31T08:51:12;11.40;99.90
25983;DHT22;13773;48.868;10.730;2022-10-31T08:53:38;11.70;99.90
25983;DHT22;13773;48.868;10.730;2022-10-31T08:56:04;12.00;99.90
25983;DHT22;13773;48.868;10.730;2022-10-31T08:58:30;12.40;99.90
25983;DHT22;13773;48.868;10.730;2022-10-31T09:00:55;12.60;99.90
25983;DHT22;13773;48.868;10.730;2022-10-31T09:03:25;12.80;99.90
25983;DHT22;13773;48.868;10.730;2022-10-31T09:05:55;12.90;99.90
25983;DHT22;13773;48.868;10.730;2022-10-31T09:08:21;13.10;99.90
25983;DHT22;13773;48.868;10.730;2022-10-31T09:10:47;13.30;99.90
25983;DHT22;13773;48.868;10.730;2022-10-31T09:13:17;13.40;99.90
25983;DHT22;13773;48.868;10.730;2022-10-31T09:15:45;13.50;99.90
25983;DHT22;13773;48.868;10.730;2022-10-31T09:18:12;13.60;99.90
25983;DHT22;13773;48.868;10.730;2022-10-31T09:20:40;13.70;99.90
25983;DHT22;13773;48.868;10.730;2022-10-31T09:23:13;13.80;99.90
25983;DHT22;13773;48.868;10.730;2022-10-31T09:25:39;13.90;99.90
25983;DHT22;13773;48.868;10.730;2022-10-31T09:28:07;14.00;99.90
25983;DHT22;13773;48.868;10.730;2022-10-31T09:30:34;14.10;99.90
25983;DHT22;13773;48.868;10.730;2022-10-31T09:33:02;14.20;99.90
25983;DHT22;13773;48.868;10.730;2022-10-31T09:35:28;14.20;99.90
25983;DHT22;13773;48.868;10.730;2022-10-31T09:37:59;14.40;99.90
25983;DHT22;13773;48.868;10.730;2022-10-31T09:41:16;14.50;99.90
25983;DHT22;13773;48.868;10.730;2022-10-31T09:51:33;15.10;99.90
25983;DHT22;13773;48.868;10.730;2022-10-31T09:54:06;15.10;99.90
25983;DHT22;13773;48.868;10.730;2022-10-31T09:56:36;15.20;99.90
25983;DHT22;13773;48.868;10.730;2022-10-31T09:59:04;15.40;99.90
25983;DHT22;13773;48.868;10.730;2022-10-31T10:01:46;15.40;99.90
25983;DHT22;13773;48.868;10.730;2022-10-31T10:06:57;15.70;99.90
25983;DHT22;13773;48.868;10.730;2022-10-31T10:09:26;15.80;99.90
25983;DHT22;13773;48.868;10.730;2022-10-31T10:20:17;16.10;99.90
25983;DHT22;13773;48.868;10.730;2022-10-31T10:22:54;16.00;99.90
25983;DHT22;13773;48.868;10.730;2022-10-31T10:25:34;16.20;99.90
25983;DHT22;13773;48.868;10.730;2022-10-31T10:31:03;16.70;99.90
25983;DHT22;13773;48.868;10.730;2022-10-31T10:33:32;16.40;99.90
25983;DHT22;13773;48.868;10.730;2022-10-31T10:39:09;15.90;99.90
25983;DHT22;13773;48.868;10.730;2022-10-31T10:41:38;16.10;99.90
25983;DHT22;13773;48.868;10.730;2022-10-31T10:44:09;16.00;99.90
25983;DHT22;13773;48.868;10.730;2022-10-31T10:46:43;16.10;99.90
25983;DHT22;13773;48.868;10.730;2022-10-31T10:49:44;16.10;99.90
25983;DHT22;13773;48.868;10.730;2022-10-31T10:52:31;16.10;99.90
25983;DHT22;13773;48.868;10.730;2022-10-31T10:55:12;16.20;99.90
25983;DHT22;13773;48.868;10.730;2022-10-31T10:57:56;16.30;99.90
25983;DHT22;13773;48.868;10.730;2022-10-31T11:00:31;16.40;99.90
25983;DHT22;13773;48.868;10.730;2022-10-31T11:02:57;16.50;99.90
25983;DHT22;13773;48.868;10.730;2022-10-31T11:08:34;16.90;99.90
25983;DHT22;13773;48.868;10.730;2022-10-31T11:11:05;17.00;99.90
25983;DHT22;13773;48.868;10.730;2022-10-31T11:13:33;16.60;99.90
25983;DHT22;13773;48.868;10.730;2022-10-31T11:16:07;17.00;99.90
25983;DHT22;13773;48.868;10.730;2022-10-31T11:18:38;17.20;99.90
25983;DHT22;13773;48.868;10.730;2022-10-31T11:21:05;17.50;99.90
25983;DHT22;13773;48.868;10.730;2022-10-31T11:23:32;17.60;99.90
25983;DHT22;13773;48.868;10.730;2022-10-31T11:26:00;17.70;99.90
25983;DHT22;13773;48.868;10.730;2022-10-31T11:28:27;17.80;99.90
25983;DHT22;13773;48.868;10.730;2022-10-31T11:30:59;17.80;99.90
25983;DHT22;13773;48.868;10.730;2022-10-31T11:36:25;18.20;99.90
25983;DHT22;13773;48.868;10.730;2022-10-31T11:38:51;18.10;99.90
25983;DHT22;13773;48.868;10.730;2022-10-31T11:41:19;18.10;99.90
25983;DHT22;13773;48.868;10.730;2022-10-31T11:43:58;18.10;99.90
25983;DHT22;13773;48.868;10.730;2022-10-31T11:46:33;18.20;99.90
25983;DHT22;13773;48.868;10.730;2022-10-31T11:49:00;18.30;99.90
25983;DHT22;13773;48.868;10.730;2022-10-31T11:51:30;18.40;99.90
25983;DHT22;13773;48.868;10.730;2022-10-31T11:54:00;18.50;99.90
25983;DHT22;13773;48.868;10.730;2022-10-31T11:56:37;18.40;99.90
25983;DHT22;13773;48.868;10.730;2022-10-31T11:59:05;18.50;99.90
25983;DHT22;13773;48.868;10.730;2022-10-31T12:01:32;18.70;99.90
25983;DHT22;13773;48.868;10.730;2022-10-31T12:04:10;18.70;99.90
25983;DHT22;13773;48.868;10.730;2022-10-31T12:06:41;18.70;99.90
25983;DHT22;13773;48.868;10.730;2022-10-31T12:09:27;18.60;99.90
25983;DHT22;13773;48.868;10.730;2022-10-31T12:30:11;18.20;99.90
25983;DHT22;13773;48.868;10.730;2022-10-31T12:35:40;18.20;99.90
25983;DHT22;13773;48.868;10.730;2022-10-31T12:41:15;18.40;99.90
25983;DHT22;13773;48.868;10.730;2022-10-31T12:44:58;18.60;99.90
25983;DHT22;13773;48.868;10.730;2022-10-31T12:57:48;19.10;99.90
25983;DHT22;13773;48.868;10.730;2022-10-31T13:00:18;19.30;99.90
25983;DHT22;13773;48.868;10.730;2022-10-31T13:05:41;19.30;99.90
25983;DHT22;13773;48.868;10.730;2022-10-31T13:08:42;19.20;99.90
25983;DHT22;13773;48.868;10.730;2022-10-31T13:11:15;19.00;99.90
25983;DHT22;13773;48.868;10.730;2022-10-31T13:13:48;18.80;99.90
25983;DHT22;13773;48.868;10.730;2022-10-31T13:16:20;18.60;99.90
25983;DHT22;13773;48.868;10.730;2022-10-31T13:21:23;18.10;99.90
25983;DHT22;13773;48.868;10.730;2022-10-31T13:23:50;17.90;99.90
25983;DHT22;13773;48.868;10.730;2022-10-31T13:26:31;17.80;99.90
25983;DHT22;13773;48.868;10.730;2022-10-31T13:29:13;17.80;99.90
25983;DHT22;13773;48.868;10.730;2022-10-31T13:31:41;17.50;99.90
25983;DHT22;13773;48.868;10.730;2022-10-31T13:40:29;17.30;99.90
25983;DHT22;13773;48.868;10.730;2022-10-31T13:43:04;17.10;99.90
25983;DHT22;13773;48.868;10.730;2022-10-31T13:45:31;17.00;99.90
25983;DHT22;13773;48.868;10.730;2022-10-31T13:50:32;16.80;99.90
25983;DHT22;13773;48.868;10.730;2022-10-31T13:55:44;16.70;99.90
25983;DHT22;13773;48.868;10.730;2022-10-31T13:58:24;16.60;99.90
25983;DHT22;13773;48.868;10.730;2022-10-31T14:03:42;16.60;99.90
25983;DHT22;13773;48.868;10.730;2022-10-31T14:06:09;16.60;99.90
25983;DHT22;13773;48.868;10.730;2022-10-31T14:08:39;16.60;99.90
25983;DHT22;13773;48.868;10.730;2022-10-31T14:11:07;16.50;99.90
25983;DHT22;13773;48.868;10.730;2022-10-31T14:13:43;16.60;99.90
25983;DHT22;13773;48.868;10.730;2022-10-31T14:16:28;16.60;99.90
25983;DHT22;13773;48.868;10.730;2022-10-31T14:19:05;16.50;99.90
25983;DHT22;13773;48.868;10.730;2022-10-31T14:21:38;16.50;99.90
25983;DHT22;13773;48.868;10.730;2022-10-31T14:24:35;16.50;99.90
25983;DHT22;13773;48.868;10.730;2022-10-31T14:27:35;16.40;99.90
25983;DHT22;13773;48.868;10.730;2022-10-31T14:29:51;16.30;99.90
25983;DHT22;13773;48.868;10.730;2022-10-31T14:32:24;16.40;99.90
25983;DHT22;13773;48.868;10.730;2022-10-31T14:34:55;16.40;99.90
25983;DHT22;13773;48.868;10.730;2022-10-31T14:37:43;16.40;99.90
25983;DHT22;13773;48.868;10.730;2022-10-31T14:48:41;16.10;99.90
25983;DHT22;13773;48.868;10.730;2022-10-31T14:51:14;16.10;99.90
25983;DHT22;13773;48.868;10.730;2022-10-31T14:54:01;16.00;99.90
25983;DHT22;13773;48.868;10.730;2022-10-31T14:56:33;16.00;99.90
25983;DHT22;13773;48.868;10.730;2022-10-31T14:59:11;15.90;99.90
25983;DHT22;13773;48.868;10.730;2022-10-31T15:01:38;15.80;99.90
25983;DHT22;13773;48.868;10.730;2022-10-31T15:04:27;15.70;99.90
25983;DHT22;13773;48.868;10.730;2022-10-31T15:07:10;15.60;99.90
25983;DHT22;13773;48.868;10.730;2022-10-31T15:09:38;15.50;99.90
25983;DHT22;13773;48.868;10.730;2022-10-31T15:12:28;15.50;99.90
25983;DHT22;13773;48.868;10.730;2022-10-31T15:14:54;15.40;99.90
25983;DHT22;13773;48.868;10.730;2022-10-31T15:17:25;15.40;99.90
25983;DHT22;13773;48.868;10.730;2022-10-31T15:19:52;15.40;99.90
25983;DHT22;13773;48.868;10.730;2022-10-31T15:22:21;15.50;99.90
25983;DHT22;13773;48.868;10.730;2022-10-31T15:24:48;15.50;99.90
25983;DHT22;13773;48.868;10.730;2022-10-31T15:27:21;15.50;99.90
25983;DHT22;13773;48.868;10.730;2022-10-31T15:29:53;15.50;99.90
25983;DHT22;13773;48.868;10.730;2022-10-31T15:32:29;15.50;99.90
25983;DHT22;13773;48.868;10.730;2022-10-31T15:34:55;15.40;99.90
25983;DHT22;13773;48.868;10.730;2022-10-31T15:37:23;15.30;99.90
25983;DHT22;13773;48.868;10.730;2022-10-31T15:39:50;15.30;99.90
25983;DHT22;13773;48.868;10.730;2022-10-31T15:44:52;15.10;99.90
25983;DHT22;13773;48.868;10.730;2022-10-31T15:47:20;15.00;99.90
25983;DHT22;13773;48.868;10.730;2022-10-31T15:49:57;14.90;99.90
25983;DHT22;13773;48.868;10.730;2022-10-31T15:52:29;14.70;99.90
25983;DHT22;13773;48.868;10.730;2022-10-31T15:55:14;14.70;99.90
25983;DHT22;13773;48.868;10.730;2022-10-31T15:57:46;14.50;99.90
25983;DHT22;13773;48.868;10.730;2022-10-31T16:00:25;14.40;99.90
25983;DHT22;13773;48.868;10.730;2022-10-31T16:05:51;14.10;99.90
25983;DHT22;13773;48.868;10.730;2022-10-31T16:11:17;13.70;99.90
25983;DHT22;13773;48.868;10.730;2022-10-31T16:13:58;13.60;99.90
25983;DHT22;13773;48.868;10.730;2022-10-31T16:16:25;13.50;99.90
25983;DHT22;13773;48.868;10.730;2022-10-31T16:18:53;13.40;99.90
25983;DHT22;13773;48.868;10.730;2022-10-31T16:21:32;13.30;99.90
25983;DHT22;13773;48.868;10.730;2022-10-31T16:24:10;13.10;99.90
25983;DHT22;13773;48.868;10.730;2022-10-31T16:26:38;13.00;99.90
25983;DHT22;13773;48.868;10.730;2022-10-31T16:29:04;13.00;99.90
25983;DHT22;13773;48.868;10.730;2022-10-31T16:31:39;12.90;99.90
25983;DHT22;13773;48.868;10.730;2022-10-31T16:34:21;12.90;99.90
25983;DHT22;13773;48.868;10.730;2022-10-31T16:36:47;12.60;99.90
25983;DHT22;13773;48.868;10.730;2022-10-31T16:39:14;12.60;99.90
25983;DHT22;13773;48.868;10.730;2022-10-31T16:41:41;12.40;99.90
25983;DHT22;13773;48.868;10.730;2022-10-31T16:46:42;12.10;99.90
25983;DHT22;13773;48.868;10.730;2022-10-31T16:49:11;12.10;99.90
25983;DHT22;13773;48.868;10.730;2022-10-31T16:51:37;12.00;99.90
25983;DHT22;13773;48.868;10.730;2022-10-31T16:54:03;11.90;99.90
25983;DHT22;13773;48.868;10.730;2022-10-31T16:56:31;12.10;99.90
25983;DHT22;13773;48.868;10.730;2022-10-31T16:58:59;12.10;99.90
25983;DHT22;13773;48.868;10.730;2022-10-31T17:01:26;11.90;99.90
25983;DHT22;13773;48.868;10.730;2022-10-31T17:03:52;12.00;99.90
25983;DHT22;13773;48.868;10.730;2022-10-31T17:06:17;11.90;99.90
25983;DHT22;13773;48.868;10.730;2022-10-31T17:08:43;12.10;99.90
25983;DHT22;13773;48.868;10.730;2022-10-31T17:11:16;11.90;99.90
25983;DHT22;13773;48.868;10.730;2022-10-31T17:13:42;12.00;99.90
25983;DHT22;13773;48.868;10.730;2022-10-31T17:16:08;12.00;99.90
25983;DHT22;13773;48.868;10.730;2022-10-31T17:18:34;12.00;99.90
25983;DHT22;13773;48.868;10.730;2022-10-31T17:21:04;12.00;99.90
25983;DHT22;13773;48.868;10.730;2022-10-31T17:23:31;11.90;99.90
25983;DHT22;13773;48.868;10.730;2022-10-31T17:25:58;11.80;99.90
25983;DHT22;13773;48.868;10.730;2022-10-31T17:28:24;11.80;99.90
25983;DHT22;13773;48.868;10.730;2022-10-31T17:30:55;11.70;99.90
25983;DHT22;13773;48.868;10.730;2022-10-31T17:33:23;11.80;99.90
25983;DHT22;13773;48.868;10.730;2022-10-31T17:35:49;11.60;99.90
25983;DHT22;13773;48.868;10.730;2022-10-31T17:38:15;11.50;99.90
25983;DHT22;13773;48.868;10.730;2022-10-31T17:40:41;11.40;99.90
25983;DHT22;13773;48.868;10.730;2022-10-31T17:43:07;11.30;99.90
25983;DHT22;13773;48.868;10.730;2022-10-31T17:45:33;11.20;99.90
25983;DHT22;13773;48.868;10.730;2022-10-31T17:47:59;11.20;99.90
25983;DHT22;13773;48.868;10.730;2022-10-31T17:50:25;11.20;99.90
25983;DHT22;13773;48.868;10.730;2022-10-31T17:52:52;11.20;99.90
25983;DHT22;13773;48.868;10.730;2022-10-31T17:55:17;11.20;99.90
25983;DHT22;13773;48.868;10.730;2022-10-31T17:57:43;11.10;99.90
25983;DHT22;13773;48.868;10.730;2022-10-31T18:00:18;11.30;99.90
25983;DHT22;13773;48.868;10.730;2022-10-31T18:02:46;11.50;99.90
25983;DHT22;13773;48.868;10.730;2022-10-31T18:05:11;11.40;99.90